sensor_id;sensor_type;location;lat;lon;timestamp;P1;P2;P0
64627;PMS5003;68467;50.960;0.314;2023-12-29T00:01:14;5;4;
64627;PMS5003;68467;50.960;0.314;2023-12-29T00:03:41;10;7;
64627;PMS5003;68467;50.960;0.314;2023-12-29T00:06:09;10;10;
64627;PMS5003;68467;50.960;0.314;2023-12-29T00:08:36;6;5;
64627;PMS5003;68467;50.960;0.314;2023-12-29T00:11:03;7;5;
64627;PMS5003;68467;50.960;0.314;2023-12-29T00:13:30;8;7;
64627;PMS5003;68467;50.960;0.314;2023-12-29T00:15:57;6;5;
64627;PMS5003;68467;50.960;0.314;2023-12-29T00:18:23;4;3;
64627;PMS5003;68467;50.960;0.314;2023-12-29T00:20:50;7;6;
64627;PMS5003;68467;50.960;0.314;2023-12-29T00:23:17;5;5;
64627;PMS5003;68467;50.960;0.314;2023-12-29T00:25:45;8;7;
64627;PMS5003;68467;50.960;0.314;2023-12-29T00:28:12;5;4;
64627;PMS5003;68467;50.960;0.314;2023-12-29T00:30:39;6;5;
64627;PMS5003;68467;50.960;0.314;2023-12-29T00:33:06;9;8;
64627;PMS5003;68467;50.960;0.314;2023-12-29T00:35:36;10;9;
64627;PMS5003;68467;50.960;0.314;2023-12-29T00:38:04;7;6;
64627;PMS5003;68467;50.960;0.314;2023-12-29T00:40:31;7;6;
64627;PMS5003;68467;50.960;0.314;2023-12-29T00:42:58;6;5;
64627;PMS5003;68467;50.960;0.314;2023-12-29T00:45:26;4;3;
64627;PMS5003;68467;50.960;0.314;2023-12-29T00:47:54;10;6;
64627;PMS5003;68467;50.960;0.314;2023-12-29T00:50:21;6;6;
64627;PMS5003;68467;50.960;0.314;2023-12-29T00:52:49;9;6;
64627;PMS5003;68467;50.960;0.314;2023-12-29T00:55:16;8;5;
64627;PMS5003;68467;50.960;0.314;2023-12-29T00:57:43;10;9;
64627;PMS5003;68467;50.960;0.314;2023-12-29T01:00:12;8;6;
64627;PMS5003;68467;50.960;0.314;2023-12-29T01:02:40;9;8;
64627;PMS5003;68467;50.960;0.314;2023-12-29T01:05:07;8;6;
64627;PMS5003;68467;50.960;0.314;2023-12-29T01:07:34;9;7;
64627;PMS5003;68467;50.960;0.314;2023-12-29T01:10:01;8;6;
64627;PMS5003;68467;50.960;0.314;2023-12-29T01:12:29;6;6;
64627;PMS5003;68467;50.960;0.314;2023-12-29T01:15:01;9;7;
64627;PMS5003;68467;50.960;0.314;2023-12-29T01:17:28;8;6;
64627;PMS5003;68467;50.960;0.314;2023-12-29T01:19:54;7;6;
64627;PMS5003;68467;50.960;0.314;2023-12-29T01:22:23;9;7;
64627;PMS5003;68467;50.960;0.314;2023-12-29T01:24:51;8;7;
64627;PMS5003;68467;50.960;0.314;2023-12-29T01:27:18;8;7;
64627;PMS5003;68467;50.960;0.314;2023-12-29T01:29:45;9;8;
64627;PMS5003;68467;50.960;0.314;2023-12-29T01:32:12;11;10;
64627;PMS5003;68467;50.960;0.314;2023-12-29T01:34:39;11;9;
64627;PMS5003;68467;50.960;0.314;2023-12-29T01:37:06;11;8;
64627;PMS5003;68467;50.960;0.314;2023-12-29T01:39:34;10;9;
64627;PMS5003;68467;50.960;0.314;2023-12-29T01:42:01;7;6;
64627;PMS5003;68467;50.960;0.314;2023-12-29T01:44:28;7;6;
64627;PMS5003;68467;50.960;0.314;2023-12-29T01:46:57;5;4;
64627;PMS5003;68467;50.960;0.314;2023-12-29T01:49:27;7;7;
64627;PMS5003;68467;50.960;0.314;2023-12-29T01:51:55;7;6;
64627;PMS5003;68467;50.960;0.314;2023-12-29T01:54:24;4;4;
64627;PMS5003;68467;50.960;0.314;2023-12-29T01:56:54;8;5;
64627;PMS5003;68467;50.960;0.314;2023-12-29T01:59:24;5;5;
64627;PMS5003;68467;50.960;0.314;2023-12-29T02:01:53;7;4;
64627;PMS5003;68467;50.960;0.314;2023-12-29T02:04:21;5;4;
64627;PMS5003;68467;50.960;0.314;2023-12-29T02:06:50;5;4;
64627;PMS5003;68467;50.960;0.314;2023-12-29T02:09:17;6;6;
64627;PMS5003;68467;50.960;0.314;2023-12-29T02:11:45;7;5;
64627;PMS5003;68467;50.960;0.314;2023-12-29T02:14:12;6;5;
64627;PMS5003;68467;50.960;0.314;2023-12-29T02:16:42;6;5;
64627;PMS5003;68467;50.960;0.314;2023-12-29T02:19:22;10;10;
64627;PMS5003;68467;50.960;0.314;2023-12-29T02:21:59;10;6;
64627;PMS5003;68467;50.960;0.314;2023-12-29T02:24:26;5;3;
64627;PMS5003;68467;50.960;0.314;2023-12-29T02:26:55;6;4;
64627;PMS5003;68467;50.960;0.314;2023-12-29T02:29:29;3;3;
64627;PMS5003;68467;50.960;0.314;2023-12-29T02:31:59;5;5;
64627;PMS5003;68467;50.960;0.314;2023-12-29T02:34:28;7;6;
64627;PMS5003;68467;50.960;0.314;2023-12-29T02:36:58;10;7;
64627;PMS5003;68467;50.960;0.314;2023-12-29T02:39:26;6;6;
64627;PMS5003;68467;50.960;0.314;2023-12-29T02:41:54;7;5;
64627;PMS5003;68467;50.960;0.314;2023-12-29T02:44:22;5;4;
64627;PMS5003;68467;50.960;0.314;2023-12-29T02:46:49;10;7;
64627;PMS5003;68467;50.960;0.314;2023-12-29T02:49:15;6;5;
64627;PMS5003;68467;50.960;0.314;2023-12-29T02:51:42;8;5;
64627;PMS5003;68467;50.960;0.314;2023-12-29T02:54:09;5;5;
64627;PMS5003;68467;50.960;0.314;2023-12-29T02:56:36;7;5;
64627;PMS5003;68467;50.960;0.314;2023-12-29T02:59:03;4;4;
64627;PMS5003;68467;50.960;0.314;2023-12-29T03:01:31;7;4;
64627;PMS5003;68467;50.960;0.314;2023-12-29T03:03:58;4;4;
64627;PMS5003;68467;50.960;0.314;2023-12-29T03:06:27;3;3;
64627;PMS5003;68467;50.960;0.314;2023-12-29T03:08:54;10;9;
64627;PMS5003;68467;50.960;0.314;2023-12-29T03:11:21;7;5;
64627;PMS5003;68467;50.960;0.314;2023-12-29T03:13:48;10;6;
64627;PMS5003;68467;50.960;0.314;2023-12-29T03:16:15;8;5;
64627;PMS5003;68467;50.960;0.314;2023-12-29T03:18:42;6;5;
64627;PMS5003;68467;50.960;0.314;2023-12-29T03:21:09;5;4;
64627;PMS5003;68467;50.960;0.314;2023-12-29T03:23:35;6;6;
64627;PMS5003;68467;50.960;0.314;2023-12-29T03:26:03;6;5;
64627;PMS5003;68467;50.960;0.314;2023-12-29T03:28:31;6;5;
64627;PMS5003;68467;50.960;0.314;2023-12-29T03:30:58;4;3;
64627;PMS5003;68467;50.960;0.314;2023-12-29T03:33:25;6;6;
64627;PMS5003;68467;50.960;0.314;2023-12-29T03:35:52;7;7;
64627;PMS5003;68467;50.960;0.314;2023-12-29T03:38:19;5;4;
64627;PMS5003;68467;50.960;0.314;2023-12-29T03:40:46;5;3;
64627;PMS5003;68467;50.960;0.314;2023-12-29T03:43:13;5;4;
64627;PMS5003;68467;50.960;0.314;2023-12-29T03:45:40;5;4;
64627;PMS5003;68467;50.960;0.314;2023-12-29T03:48:07;5;4;
64627;PMS5003;68467;50.960;0.314;2023-12-29T03:50:34;5;5;
64627;PMS5003;68467;50.960;0.314;2023-12-29T03:53:01;5;4;
64627;PMS5003;68467;50.960;0.314;2023-12-29T03:55:28;7;6;
64627;PMS5003;68467;50.960;0.314;2023-12-29T03:57:55;9;9;
64627;PMS5003;68467;50.960;0.314;2023-12-29T04:00:22;9;6;
64627;PMS5003;68467;50.960;0.314;2023-12-29T04:02:50;5;4;
64627;PMS5003;68467;50.960;0.314;2023-12-29T04:05:17;5;5;
64627;PMS5003;68467;50.960;0.314;2023-12-29T04:07:44;4;4;
64627;PMS5003;68467;50.960;0.314;2023-12-29T04:10:12;4;4;
64627;PMS5003;68467;50.960;0.314;2023-12-29T04:12:39;4;4;
64627;PMS5003;68467;50.960;0.314;2023-12-29T04:15:07;7;6;
64627;PMS5003;68467;50.960;0.314;2023-12-29T04:17:34;5;4;
64627;PMS5003;68467;50.960;0.314;2023-12-29T04:20:01;4;3;
64627;PMS5003;68467;50.960;0.314;2023-12-29T04:22:28;4;4;
64627;PMS5003;68467;50.960;0.314;2023-12-29T04:24:55;4;4;
64627;PMS5003;68467;50.960;0.314;2023-12-29T04:27:22;6;5;
64627;PMS5003;68467;50.960;0.314;2023-12-29T04:29:49;5;5;
64627;PMS5003;68467;50.960;0.314;2023-12-29T04:32:16;3;3;
64627;PMS5003;68467;50.960;0.314;2023-12-29T04:34:43;4;4;
64627;PMS5003;68467;50.960;0.314;2023-12-29T04:37:11;4;4;
64627;PMS5003;68467;50.960;0.314;2023-12-29T04:39:38;5;4;
64627;PMS5003;68467;50.960;0.314;2023-12-29T04:42:05;4;4;
64627;PMS5003;68467;50.960;0.314;2023-12-29T04:44:31;5;4;
64627;PMS5003;68467;50.960;0.314;2023-12-29T04:46:58;3;2;
64627;PMS5003;68467;50.960;0.314;2023-12-29T04:49:26;7;5;
64627;PMS5003;68467;50.960;0.314;2023-12-29T04:51:53;2;2;
64627;PMS5003;68467;50.960;0.314;2023-12-29T04:54:20;4;3;
64627;PMS5003;68467;50.960;0.314;2023-12-29T04:56:48;2;2;
64627;PMS5003;68467;50.960;0.314;2023-12-29T04:59:14;5;3;
64627;PMS5003;68467;50.960;0.314;2023-12-29T05:01:42;6;5;
64627;PMS5003;68467;50.960;0.314;2023-12-29T05:04:09;4;3;
64627;PMS5003;68467;50.960;0.314;2023-12-29T05:06:36;4;3;
64627;PMS5003;68467;50.960;0.314;2023-12-29T05:09:03;4;4;
64627;PMS5003;68467;50.960;0.314;2023-12-29T05:11:30;5;5;
64627;PMS5003;68467;50.960;0.314;2023-12-29T05:13:57;4;3;
64627;PMS5003;68467;50.960;0.314;2023-12-29T05:16:24;4;3;
64627;PMS5003;68467;50.960;0.314;2023-12-29T05:18:51;3;3;
64627;PMS5003;68467;50.960;0.314;2023-12-29T05:21:18;3;3;
64627;PMS5003;68467;50.960;0.314;2023-12-29T05:23:45;6;5;
64627;PMS5003;68467;50.960;0.314;2023-12-29T05:26:12;2;2;
64627;PMS5003;68467;50.960;0.314;2023-12-29T05:28:40;4;4;
64627;PMS5003;68467;50.960;0.314;2023-12-29T05:31:07;2;2;
64627;PMS5003;68467;50.960;0.314;2023-12-29T05:33:35;3;2;
64627;PMS5003;68467;50.960;0.314;2023-12-29T05:36:05;3;2;
64627;PMS5003;68467;50.960;0.314;2023-12-29T05:38:38;4;3;
64627;PMS5003;68467;50.960;0.314;2023-12-29T05:41:06;1;1;
64627;PMS5003;68467;50.960;0.314;2023-12-29T05:43:33;4;2;
64627;PMS5003;68467;50.960;0.314;2023-12-29T05:46:01;1;1;
64627;PMS5003;68467;50.960;0.314;2023-12-29T05:48:28;2;0;
64627;PMS5003;68467;50.960;0.314;2023-12-29T05:51:05;2;1;
64627;PMS5003;68467;50.960;0.314;2023-12-29T05:53:33;4;2;
64627;PMS5003;68467;50.960;0.314;2023-12-29T05:56:00;4;3;
64627;PMS5003;68467;50.960;0.314;2023-12-29T05:58:28;2;1;
64627;PMS5003;68467;50.960;0.314;2023-12-29T06:00:55;1;1;
64627;PMS5003;68467;50.960;0.314;2023-12-29T06:03:22;1;1;
64627;PMS5003;68467;50.960;0.314;2023-12-29T06:05:49;5;5;
64627;PMS5003;68467;50.960;0.314;2023-12-29T06:08:16;5;4;
64627;PMS5003;68467;50.960;0.314;2023-12-29T06:10:44;5;5;
64627;PMS5003;68467;50.960;0.314;2023-12-29T06:13:11;8;8;
64627;PMS5003;68467;50.960;0.314;2023-12-29T06:15:39;21;19;
64627;PMS5003;68467;50.960;0.314;2023-12-29T06:18:06;5;5;
64627;PMS5003;68467;50.960;0.314;2023-12-29T06:20:33;6;6;
64627;PMS5003;68467;50.960;0.314;2023-12-29T06:23:00;4;4;
64627;PMS5003;68467;50.960;0.314;2023-12-29T06:25:27;3;3;
64627;PMS5003;68467;50.960;0.314;2023-12-29T06:27:54;2;1;
64627;PMS5003;68467;50.960;0.314;2023-12-29T06:30:22;3;3;
64627;PMS5003;68467;50.960;0.314;2023-12-29T06:32:49;1;1;
64627;PMS5003;68467;50.960;0.314;2023-12-29T06:35:15;13;10;
64627;PMS5003;68467;50.960;0.314;2023-12-29T06:37:42;12;11;
64627;PMS5003;68467;50.960;0.314;2023-12-29T06:40:10;4;4;
64627;PMS5003;68467;50.960;0.314;2023-12-29T06:42:37;2;2;
64627;PMS5003;68467;50.960;0.314;2023-12-29T06:45:05;6;5;
64627;PMS5003;68467;50.960;0.314;2023-12-29T06:47:33;7;7;
64627;PMS5003;68467;50.960;0.314;2023-12-29T06:50:00;5;3;
64627;PMS5003;68467;50.960;0.314;2023-12-29T06:52:28;4;4;
64627;PMS5003;68467;50.960;0.314;2023-12-29T06:54:55;3;2;
64627;PMS5003;68467;50.960;0.314;2023-12-29T06:57:23;4;2;
64627;PMS5003;68467;50.960;0.314;2023-12-29T06:59:50;2;2;
64627;PMS5003;68467;50.960;0.314;2023-12-29T07:02:17;2;2;
64627;PMS5003;68467;50.960;0.314;2023-12-29T07:04:44;2;1;
64627;PMS5003;68467;50.960;0.314;2023-12-29T07:07:11;2;1;
64627;PMS5003;68467;50.960;0.314;2023-12-29T07:09:38;3;2;
64627;PMS5003;68467;50.960;0.314;2023-12-29T07:12:05;3;1;
64627;PMS5003;68467;50.960;0.314;2023-12-29T07:14:33;5;5;
64627;PMS5003;68467;50.960;0.314;2023-12-29T07:17:00;14;13;
64627;PMS5003;68467;50.960;0.314;2023-12-29T07:19:27;4;3;
64627;PMS5003;68467;50.960;0.314;2023-12-29T07:21:54;7;5;
64627;PMS5003;68467;50.960;0.314;2023-12-29T07:24:22;2;2;
64627;PMS5003;68467;50.960;0.314;2023-12-29T07:26:49;4;3;
64627;PMS5003;68467;50.960;0.314;2023-12-29T07:29:16;0;0;
64627;PMS5003;68467;50.960;0.314;2023-12-29T07:31:44;2;2;
64627;PMS5003;68467;50.960;0.314;2023-12-29T07:34:11;2;2;
64627;PMS5003;68467;50.960;0.314;2023-12-29T07:36:38;1;1;
64627;PMS5003;68467;50.960;0.314;2023-12-29T07:39:06;4;4;
64627;PMS5003;68467;50.960;0.314;2023-12-29T07:41:39;4;4;
64627;PMS5003;68467;50.960;0.314;2023-12-29T07:44:06;6;3;
64627;PMS5003;68467;50.960;0.314;2023-12-29T07:46:33;2;2;
64627;PMS5003;68467;50.960;0.314;2023-12-29T07:49:01;3;3;
64627;PMS5003;68467;50.960;0.314;2023-12-29T07:51:28;4;3;
64627;PMS5003;68467;50.960;0.314;2023-12-29T07:53:55;2;2;
64627;PMS5003;68467;50.960;0.314;2023-12-29T07:56:22;3;3;
64627;PMS5003;68467;50.960;0.314;2023-12-29T07:58:50;4;3;
64627;PMS5003;68467;50.960;0.314;2023-12-29T08:01:18;14;14;
64627;PMS5003;68467;50.960;0.314;2023-12-29T08:03:45;2;2;
64627;PMS5003;68467;50.960;0.314;2023-12-29T08:06:12;2;2;
64627;PMS5003;68467;50.960;0.314;2023-12-29T08:08:38;2;2;
64627;PMS5003;68467;50.960;0.314;2023-12-29T08:11:12;4;2;
64627;PMS5003;68467;50.960;0.314;2023-12-29T08:13:40;3;3;
64627;PMS5003;68467;50.960;0.314;2023-12-29T08:16:07;4;4;
64627;PMS5003;68467;50.960;0.314;2023-12-29T08:18:34;8;7;
64627;PMS5003;68467;50.960;0.314;2023-12-29T08:21:01;4;3;
64627;PMS5003;68467;50.960;0.314;2023-12-29T08:23:28;4;3;
64627;PMS5003;68467;50.960;0.314;2023-12-29T08:25:56;3;3;
64627;PMS5003;68467;50.960;0.314;2023-12-29T08:28:23;3;3;
64627;PMS5003;68467;50.960;0.314;2023-12-29T08:30:51;5;3;
64627;PMS5003;68467;50.960;0.314;2023-12-29T08:33:18;6;4;
64627;PMS5003;68467;50.960;0.314;2023-12-29T08:35:45;6;6;
64627;PMS5003;68467;50.960;0.314;2023-12-29T08:38:12;6;6;
64627;PMS5003;68467;50.960;0.314;2023-12-29T08:40:39;9;8;
64627;PMS5003;68467;50.960;0.314;2023-12-29T08:43:09;8;7;
64627;PMS5003;68467;50.960;0.314;2023-12-29T08:45:36;17;15;
64627;PMS5003;68467;50.960;0.314;2023-12-29T08:48:04;5;5;
64627;PMS5003;68467;50.960;0.314;2023-12-29T08:50:32;15;13;
64627;PMS5003;68467;50.960;0.314;2023-12-29T08:52:58;39;33;
64627;PMS5003;68467;50.960;0.314;2023-12-29T08:55:26;25;19;
64627;PMS5003;68467;50.960;0.314;2023-12-29T08:57:54;7;5;
64627;PMS5003;68467;50.960;0.314;2023-12-29T09:00:21;9;8;
64627;PMS5003;68467;50.960;0.314;2023-12-29T09:02:49;7;6;
64627;PMS5003;68467;50.960;0.314;2023-12-29T09:05:16;7;7;
64627;PMS5003;68467;50.960;0.314;2023-12-29T09:07:44;7;7;
64627;PMS5003;68467;50.960;0.314;2023-12-29T09:10:11;7;6;
64627;PMS5003;68467;50.960;0.314;2023-12-29T09:12:38;5;3;
64627;PMS5003;68467;50.960;0.314;2023-12-29T09:15:06;10;8;
64627;PMS5003;68467;50.960;0.314;2023-12-29T09:17:33;7;4;
64627;PMS5003;68467;50.960;0.314;2023-12-29T09:20:01;4;4;
64627;PMS5003;68467;50.960;0.314;2023-12-29T09:22:28;8;7;
64627;PMS5003;68467;50.960;0.314;2023-12-29T09:24:55;6;5;
64627;PMS5003;68467;50.960;0.314;2023-12-29T09:27:22;7;7;
64627;PMS5003;68467;50.960;0.314;2023-12-29T09:29:49;6;5;
64627;PMS5003;68467;50.960;0.314;2023-12-29T09:32:16;9;8;
64627;PMS5003;68467;50.960;0.314;2023-12-29T09:34:44;14;13;
64627;PMS5003;68467;50.960;0.314;2023-12-29T09:37:11;9;7;
64627;PMS5003;68467;50.960;0.314;2023-12-29T09:39:38;5;4;
64627;PMS5003;68467;50.960;0.314;2023-12-29T09:42:06;7;6;
64627;PMS5003;68467;50.960;0.314;2023-12-29T09:44:39;10;9;
64627;PMS5003;68467;50.960;0.314;2023-12-29T09:47:09;24;22;
64627;PMS5003;68467;50.960;0.314;2023-12-29T09:49:40;13;11;
64627;PMS5003;68467;50.960;0.314;2023-12-29T09:52:07;11;10;
64627;PMS5003;68467;50.960;0.314;2023-12-29T09:54:37;9;8;
64627;PMS5003;68467;50.960;0.314;2023-12-29T09:57:05;6;5;
64627;PMS5003;68467;50.960;0.314;2023-12-29T09:59:34;8;8;
64627;PMS5003;68467;50.960;0.314;2023-12-29T10:02:02;9;8;
64627;PMS5003;68467;50.960;0.314;2023-12-29T10:04:30;6;5;
64627;PMS5003;68467;50.960;0.314;2023-12-29T10:06:58;4;4;
64627;PMS5003;68467;50.960;0.314;2023-12-29T10:09:29;6;5;
64627;PMS5003;68467;50.960;0.314;2023-12-29T10:11:59;6;5;
64627;PMS5003;68467;50.960;0.314;2023-12-29T10:14:30;5;3;
64627;PMS5003;68467;50.960;0.314;2023-12-29T10:17:06;4;2;
64627;PMS5003;68467;50.960;0.314;2023-12-29T10:19:39;6;4;
64627;PMS5003;68467;50.960;0.314;2023-12-29T10:22:11;16;14;
64627;PMS5003;68467;50.960;0.314;2023-12-29T10:24:52;4;3;
64627;PMS5003;68467;50.960;0.314;2023-12-29T10:27:20;4;4;
64627;PMS5003;68467;50.960;0.314;2023-12-29T10:29:47;3;3;
64627;PMS5003;68467;50.960;0.314;2023-12-29T10:32:14;9;5;
64627;PMS5003;68467;50.960;0.314;2023-12-29T10:34:41;5;4;
64627;PMS5003;68467;50.960;0.314;2023-12-29T10:37:08;5;5;
64627;PMS5003;68467;50.960;0.314;2023-12-29T10:39:35;4;4;
64627;PMS5003;68467;50.960;0.314;2023-12-29T10:42:03;7;7;
64627;PMS5003;68467;50.960;0.314;2023-12-29T10:44:32;4;4;
64627;PMS5003;68467;50.960;0.314;2023-12-29T10:47:07;1;1;
64627;PMS5003;68467;50.960;0.314;2023-12-29T10:49:34;4;3;
64627;PMS5003;68467;50.960;0.314;2023-12-29T10:52:01;4;3;
64627;PMS5003;68467;50.960;0.314;2023-12-29T10:54:37;4;3;
64627;PMS5003;68467;50.960;0.314;2023-12-29T10:57:04;11;10;
64627;PMS5003;68467;50.960;0.314;2023-12-29T10:59:31;4;4;
64627;PMS5003;68467;50.960;0.314;2023-12-29T11:02:00;7;7;
64627;PMS5003;68467;50.960;0.314;2023-12-29T11:04:28;11;10;
64627;PMS5003;68467;50.960;0.314;2023-12-29T11:06:54;4;3;
64627;PMS5003;68467;50.960;0.314;2023-12-29T11:09:27;6;6;
64627;PMS5003;68467;50.960;0.314;2023-12-29T11:11:55;6;4;
64627;PMS5003;68467;50.960;0.314;2023-12-29T11:14:25;5;4;
64627;PMS5003;68467;50.960;0.314;2023-12-29T11:16:52;4;3;
64627;PMS5003;68467;50.960;0.314;2023-12-29T11:19:21;3;2;
64627;PMS5003;68467;50.960;0.314;2023-12-29T11:21:49;3;2;
64627;PMS5003;68467;50.960;0.314;2023-12-29T11:24:18;10;8;
64627;PMS5003;68467;50.960;0.314;2023-12-29T11:26:46;4;4;
64627;PMS5003;68467;50.960;0.314;2023-12-29T11:29:15;6;6;
64627;PMS5003;68467;50.960;0.314;2023-12-29T11:31:43;6;6;
64627;PMS5003;68467;50.960;0.314;2023-12-29T11:34:16;6;6;
64627;PMS5003;68467;50.960;0.314;2023-12-29T11:36:48;4;3;
64627;PMS5003;68467;50.960;0.314;2023-12-29T11:39:24;6;6;
64627;PMS5003;68467;50.960;0.314;2023-12-29T11:42:00;6;5;
64627;PMS5003;68467;50.960;0.314;2023-12-29T11:44:31;4;3;
64627;PMS5003;68467;50.960;0.314;2023-12-29T11:46:59;6;3;
64627;PMS5003;68467;50.960;0.314;2023-12-29T11:49:26;4;1;
64627;PMS5003;68467;50.960;0.314;2023-12-29T11:51:53;5;5;
64627;PMS5003;68467;50.960;0.314;2023-12-29T11:54:22;6;4;
64627;PMS5003;68467;50.960;0.314;2023-12-29T11:56:50;4;4;
64627;PMS5003;68467;50.960;0.314;2023-12-29T11:59:19;7;7;
64627;PMS5003;68467;50.960;0.314;2023-12-29T12:01:47;3;3;
64627;PMS5003;68467;50.960;0.314;2023-12-29T12:04:39;7;5;
64627;PMS5003;68467;50.960;0.314;2023-12-29T12:07:07;4;4;
64627;PMS5003;68467;50.960;0.314;2023-12-29T12:09:37;5;3;
64627;PMS5003;68467;50.960;0.314;2023-12-29T12:12:04;7;4;
64627;PMS5003;68467;50.960;0.314;2023-12-29T12:14:49;5;4;
64627;PMS5003;68467;50.960;0.314;2023-12-29T12:17:32;2;1;
64627;PMS5003;68467;50.960;0.314;2023-12-29T12:20:03;6;6;
64627;PMS5003;68467;50.960;0.314;2023-12-29T12:22:33;4;3;
64627;PMS5003;68467;50.960;0.314;2023-12-29T12:25:02;4;2;
64627;PMS5003;68467;50.960;0.314;2023-12-29T12:27:30;2;2;
64627;PMS5003;68467;50.960;0.314;2023-12-29T12:29:58;6;2;
64627;PMS5003;68467;50.960;0.314;2023-12-29T12:32:25;7;5;
64627;PMS5003;68467;50.960;0.314;2023-12-29T12:34:59;5;5;
64627;PMS5003;68467;50.960;0.314;2023-12-29T12:37:26;3;2;
64627;PMS5003;68467;50.960;0.314;2023-12-29T12:39:54;7;5;
64627;PMS5003;68467;50.960;0.314;2023-12-29T12:42:22;6;4;
64627;PMS5003;68467;50.960;0.314;2023-12-29T12:44:54;3;3;
64627;PMS5003;68467;50.960;0.314;2023-12-29T12:47:32;4;3;
64627;PMS5003;68467;50.960;0.314;2023-12-29T12:50:01;5;3;
64627;PMS5003;68467;50.960;0.314;2023-12-29T12:52:30;6;5;
64627;PMS5003;68467;50.960;0.314;2023-12-29T12:54:59;51;42;
64627;PMS5003;68467;50.960;0.314;2023-12-29T12:57:27;8;7;
64627;PMS5003;68467;50.960;0.314;2023-12-29T12:59:55;3;3;
64627;PMS5003;68467;50.960;0.314;2023-12-29T13:02:23;3;3;
64627;PMS5003;68467;50.960;0.314;2023-12-29T13:04:56;4;3;
64627;PMS5003;68467;50.960;0.314;2023-12-29T13:07:30;4;3;
64627;PMS5003;68467;50.960;0.314;2023-12-29T13:09:58;2;1;
64627;PMS5003;68467;50.960;0.314;2023-12-29T13:12:27;1;1;
64627;PMS5003;68467;50.960;0.314;2023-12-29T13:15:04;1;0;
64627;PMS5003;68467;50.960;0.314;2023-12-29T13:17:32;2;1;
64627;PMS5003;68467;50.960;0.314;2023-12-29T13:20:01;0;0;
64627;PMS5003;68467;50.960;0.314;2023-12-29T13:22:28;2;1;
64627;PMS5003;68467;50.960;0.314;2023-12-29T13:24:56;1;1;
64627;PMS5003;68467;50.960;0.314;2023-12-29T13:27:24;3;2;
64627;PMS5003;68467;50.960;0.314;2023-12-29T13:29:51;6;6;
64627;PMS5003;68467;50.960;0.314;2023-12-29T13:32:19;13;12;
64627;PMS5003;68467;50.960;0.314;2023-12-29T13:35:01;10;10;
64627;PMS5003;68467;50.960;0.314;2023-12-29T13:37:34;11;8;
64627;PMS5003;68467;50.960;0.314;2023-12-29T13:40:22;9;8;
64627;PMS5003;68467;50.960;0.314;2023-12-29T13:42:54;4;4;
64627;PMS5003;68467;50.960;0.314;2023-12-29T13:45:27;8;8;
64627;PMS5003;68467;50.960;0.314;2023-12-29T13:47:54;22;21;
64627;PMS5003;68467;50.960;0.314;2023-12-29T13:50:22;11;10;
64627;PMS5003;68467;50.960;0.314;2023-12-29T13:52:50;25;22;
64627;PMS5003;68467;50.960;0.314;2023-12-29T13:55:20;39;38;
64627;PMS5003;68467;50.960;0.314;2023-12-29T13:57:47;10;10;
64627;PMS5003;68467;50.960;0.314;2023-12-29T14:00:16;42;40;
64627;PMS5003;68467;50.960;0.314;2023-12-29T14:02:44;7;7;
64627;PMS5003;68467;50.960;0.314;2023-12-29T14:05:15;16;16;
64627;PMS5003;68467;50.960;0.314;2023-12-29T14:07:47;18;16;
64627;PMS5003;68467;50.960;0.314;2023-12-29T14:10:28;42;37;
64627;PMS5003;68467;50.960;0.314;2023-12-29T14:13:02;31;26;
64627;PMS5003;68467;50.960;0.314;2023-12-29T14:15:33;33;31;
64627;PMS5003;68467;50.960;0.314;2023-12-29T14:18:01;19;16;
64627;PMS5003;68467;50.960;0.314;2023-12-29T14:20:36;13;11;
64627;PMS5003;68467;50.960;0.314;2023-12-29T14:23:04;13;11;
64627;PMS5003;68467;50.960;0.314;2023-12-29T14:25:31;27;26;
64627;PMS5003;68467;50.960;0.314;2023-12-29T14:27:59;22;21;
64627;PMS5003;68467;50.960;0.314;2023-12-29T14:30:27;9;9;
64627;PMS5003;68467;50.960;0.314;2023-12-29T14:32:54;26;22;
64627;PMS5003;68467;50.960;0.314;2023-12-29T14:35:21;11;11;
64627;PMS5003;68467;50.960;0.314;2023-12-29T14:37:48;10;8;
64627;PMS5003;68467;50.960;0.314;2023-12-29T14:40:15;21;18;
64627;PMS5003;68467;50.960;0.314;2023-12-29T14:42:42;3;3;
64627;PMS5003;68467;50.960;0.314;2023-12-29T14:45:10;3;3;
64627;PMS5003;68467;50.960;0.314;2023-12-29T14:47:36;4;3;
64627;PMS5003;68467;50.960;0.314;2023-12-29T14:50:04;11;10;
64627;PMS5003;68467;50.960;0.314;2023-12-29T14:52:32;5;4;
64627;PMS5003;68467;50.960;0.314;2023-12-29T14:54:59;11;10;
64627;PMS5003;68467;50.960;0.314;2023-12-29T14:57:26;9;8;
64627;PMS5003;68467;50.960;0.314;2023-12-29T14:59:53;6;6;
64627;PMS5003;68467;50.960;0.314;2023-12-29T15:02:20;21;20;
64627;PMS5003;68467;50.960;0.314;2023-12-29T15:04:48;17;14;
64627;PMS5003;68467;50.960;0.314;2023-12-29T15:07:15;17;17;
64627;PMS5003;68467;50.960;0.314;2023-12-29T15:09:43;16;15;
64627;PMS5003;68467;50.960;0.314;2023-12-29T15:12:10;7;7;
64627;PMS5003;68467;50.960;0.314;2023-12-29T15:14:37;16;14;
64627;PMS5003;68467;50.960;0.314;2023-12-29T15:17:04;7;7;
64627;PMS5003;68467;50.960;0.314;2023-12-29T15:19:31;10;9;
64627;PMS5003;68467;50.960;0.314;2023-12-29T15:21:58;9;9;
64627;PMS5003;68467;50.960;0.314;2023-12-29T15:24:26;4;4;
64627;PMS5003;68467;50.960;0.314;2023-12-29T15:26:53;12;11;
64627;PMS5003;68467;50.960;0.314;2023-12-29T15:29:20;7;6;
64627;PMS5003;68467;50.960;0.314;2023-12-29T15:31:47;9;9;
64627;PMS5003;68467;50.960;0.314;2023-12-29T15:34:15;9;9;
64627;PMS5003;68467;50.960;0.314;2023-12-29T15:36:42;8;7;
64627;PMS5003;68467;50.960;0.314;2023-12-29T15:39:09;8;6;
64627;PMS5003;68467;50.960;0.314;2023-12-29T15:41:36;8;7;
64627;PMS5003;68467;50.960;0.314;2023-12-29T15:44:03;7;6;
64627;PMS5003;68467;50.960;0.314;2023-12-29T15:46:31;11;9;
64627;PMS5003;68467;50.960;0.314;2023-12-29T15:48:58;11;9;
64627;PMS5003;68467;50.960;0.314;2023-12-29T15:51:25;7;6;
64627;PMS5003;68467;50.960;0.314;2023-12-29T15:53:51;7;7;
64627;PMS5003;68467;50.960;0.314;2023-12-29T15:56:19;10;9;
64627;PMS5003;68467;50.960;0.314;2023-12-29T15:58:46;9;8;
64627;PMS5003;68467;50.960;0.314;2023-12-29T16:01:19;5;5;
64627;PMS5003;68467;50.960;0.314;2023-12-29T16:03:47;17;15;
64627;PMS5003;68467;50.960;0.314;2023-12-29T16:06:17;30;29;
64627;PMS5003;68467;50.960;0.314;2023-12-29T16:08:46;76;74;
64627;PMS5003;68467;50.960;0.314;2023-12-29T16:11:21;41;39;
64627;PMS5003;68467;50.960;0.314;2023-12-29T16:13:54;53;50;
64627;PMS5003;68467;50.960;0.314;2023-12-29T16:16:22;72;70;
64627;PMS5003;68467;50.960;0.314;2023-12-29T16:18:50;135;132;
64627;PMS5003;68467;50.960;0.314;2023-12-29T16:21:23;54;54;
64627;PMS5003;68467;50.960;0.314;2023-12-29T16:23:51;41;40;
64627;PMS5003;68467;50.960;0.314;2023-12-29T16:26:18;31;30;
64627;PMS5003;68467;50.960;0.314;2023-12-29T16:28:45;35;31;
64627;PMS5003;68467;50.960;0.314;2023-12-29T16:31:12;35;34;
64627;PMS5003;68467;50.960;0.314;2023-12-29T16:33:40;44;39;
64627;PMS5003;68467;50.960;0.314;2023-12-29T16:36:07;8;8;
64627;PMS5003;68467;50.960;0.314;2023-12-29T16:38:35;5;5;
64627;PMS5003;68467;50.960;0.314;2023-12-29T16:41:03;23;23;
64627;PMS5003;68467;50.960;0.314;2023-12-29T16:43:31;16;15;
64627;PMS5003;68467;50.960;0.314;2023-12-29T16:45:58;41;36;
64627;PMS5003;68467;50.960;0.314;2023-12-29T16:48:25;51;44;
64627;PMS5003;68467;50.960;0.314;2023-12-29T16:50:52;36;36;
64627;PMS5003;68467;50.960;0.314;2023-12-29T16:53:19;27;26;